createdAt,value
2022-12-09T00:00:12.733Z,41.28
2022-12-09T00:02:41.112Z,42.10
2022-12-09T00:05:08.682Z,40.05
2022-12-09T00:07:36.476Z,39.72
2022-12-09T00:10:06.365Z,45.20
2022-12-09T00:12:35.049Z,38.50
2022-12-09T00:15:02.420Z,44.55
2022-12-09T00:17:30.652Z,42.22
2022-12-09T00:19:57.733Z,39.17
2022-12-09T00:22:27.301Z,36.95
2022-12-09T00:24:54.801Z,35.85
2022-12-09T00:27:22.056Z,39.38
2022-12-09T00:29:49.113Z,40.67
2022-12-09T00:32:16.230Z,36.03
2022-12-09T00:34:43.498Z,38.67
2022-12-09T00:37:10.957Z,36.78
2022-12-09T00:39:38.069Z,38.83
2022-12-09T00:42:05.591Z,36.55
2022-12-09T00:44:35.130Z,42.60
2022-12-09T00:47:02.369Z,46.17
2022-12-09T00:49:29.671Z,44.25
2022-12-09T00:51:57.121Z,48.17
2022-12-09T00:54:24.250Z,40.45
2022-12-09T00:56:51.597Z,47.28
2022-12-09T00:59:18.677Z,43.63
2022-12-09T01:01:45.975Z,43.25
2022-12-09T01:04:13.737Z,37.40
2022-12-09T01:06:41.645Z,41.65
2022-12-09T01:09:09.167Z,41.65
2022-12-09T01:11:36.662Z,39.90
2022-12-09T01:14:06.738Z,36.85
2022-12-09T01:16:35.729Z,45.10
2022-12-09T01:19:06.878Z,44.45
2022-12-09T01:21:36.109Z,40.13
2022-12-09T01:24:08.180Z,40.95
2022-12-09T01:26:35.784Z,41.90
2022-12-09T01:29:03.857Z,40.08
2022-12-09T01:31:30.976Z,39.50
2022-12-09T01:33:58.668Z,41.28
2022-12-09T01:36:28.527Z,41.35
2022-12-09T01:38:57.667Z,39.67
2022-12-09T01:41:25.190Z,37.63
2022-12-09T01:44:23.081Z,39.28
2022-12-09T01:46:55.773Z,39.88
2022-12-09T01:49:38.533Z,38.23
2022-12-09T01:52:22.085Z,42.33
2022-12-09T01:54:52.201Z,36.13
2022-12-09T01:57:19.827Z,43.40
2022-12-09T01:59:47.227Z,43.97
2022-12-09T02:02:17.767Z,42.17
2022-12-09T02:04:48.228Z,42.42
2022-12-09T02:07:15.680Z,34.05
2022-12-09T02:09:43.727Z,34.65
2022-12-09T02:13:02.230Z,41.88
2022-12-09T02:15:42.360Z,37.45
2022-12-09T02:18:22.962Z,42.15
2022-12-09T02:21:19.199Z,43.33
2022-12-09T02:23:53.581Z,39.35
2022-12-09T02:26:45.853Z,44.45
2022-12-09T02:29:47.787Z,49.65
2022-12-09T02:32:34.383Z,45.75
2022-12-09T02:35:22.162Z,42.40
2022-12-09T02:38:02.272Z,45.33
2022-12-09T02:40:39.144Z,35.88
2022-12-09T02:43:09.320Z,37.00
2022-12-09T02:45:38.850Z,35.38
2022-12-09T02:48:07.508Z,45.95
2022-12-09T02:50:37.501Z,39.60
2022-12-09T02:53:09.341Z,48.75
2022-12-09T02:55:39.259Z,43.63
2022-12-09T02:58:06.857Z,43.25
2022-12-09T03:00:35.073Z,44.38
2022-12-09T03:03:06.857Z,47.03
2022-12-09T03:05:41.660Z,50.78
2022-12-09T03:08:17.707Z,45.20
2022-12-09T03:11:02.892Z,39.65
2022-12-09T03:13:54.066Z,38.60
2022-12-09T03:16:46.945Z,42.38
2022-12-09T03:19:37.928Z,45.25
2022-12-09T03:22:12.314Z,37.33
2022-12-09T03:24:48.592Z,43.97
2022-12-09T03:27:23.610Z,40.17
2022-12-09T03:29:52.166Z,39.92
2022-12-09T03:32:24.583Z,42.40
2022-12-09T03:34:57.942Z,47.00
2022-12-09T03:37:26.768Z,44.88
2022-12-09T03:39:56.680Z,42.55
2022-12-09T03:42:30.990Z,40.63
2022-12-09T03:45:11.761Z,41.42
2022-12-09T03:47:39.275Z,31.52
2022-12-09T03:50:09.128Z,32.72
2022-12-09T03:53:21.428Z,38.45
2022-12-09T03:56:06.995Z,36.60
2022-12-09T03:58:37.616Z,44.13
2022-12-09T04:01:07.089Z,39.55
2022-12-09T04:03:35.773Z,41.80
2022-12-09T04:06:04.364Z,38.53
2022-12-09T04:08:31.490Z,38.35
2022-12-09T04:10:58.631Z,35.25
2022-12-09T04:13:25.671Z,41.72
2022-12-09T04:15:52.953Z,41.30
2022-12-09T04:18:20.129Z,39.65
2022-12-09T04:20:47.154Z,35.50
2022-12-09T04:23:14.549Z,47.78
2022-12-09T04:25:41.816Z,45.42
2022-12-09T04:28:09.085Z,45.78
2022-12-09T04:30:36.223Z,41.83
2022-12-09T04:33:04.052Z,37.35
2022-12-09T04:35:31.065Z,42.03
2022-12-09T04:37:58.067Z,39.60
2022-12-09T04:40:25.399Z,49.80
2022-12-09T04:42:52.995Z,43.92
2022-12-09T04:45:20.359Z,46.58
2022-12-09T04:47:47.718Z,40.70
2022-12-09T04:50:15.251Z,43.42
2022-12-09T04:52:43.085Z,42.08
2022-12-09T04:55:10.231Z,43.78
2022-12-09T04:57:37.619Z,44.15
2022-12-09T05:00:07.733Z,39.25
2022-12-09T05:02:35.654Z,41.13
2022-12-09T05:05:04.683Z,40.53
2022-12-09T05:07:32.335Z,60.10
2022-12-09T05:10:00.314Z,55.25
2022-12-09T05:12:27.586Z,107.07
2022-12-09T05:14:54.734Z,265.85
2022-12-09T05:17:22.054Z,182.98
2022-12-09T05:19:49.264Z,91.65
2022-12-09T05:22:17.859Z,224.70
2022-12-09T05:24:46.884Z,134.57
2022-12-09T05:27:15.604Z,234.45
2022-12-09T05:29:43.084Z,179.50
2022-12-09T05:32:10.506Z,185.63
2022-12-09T05:34:38.209Z,185.00
2022-12-09T05:37:05.951Z,154.32
2022-12-09T05:39:33.397Z,259.40
2022-12-09T05:42:01.159Z,222.48
2022-12-09T05:44:28.502Z,228.60
2022-12-09T05:46:55.827Z,198.73
2022-12-09T05:49:23.775Z,291.95
2022-12-09T05:51:50.965Z,163.77
2022-12-09T05:54:18.654Z,114.38
2022-12-09T05:56:48.416Z,153.00
2022-12-09T05:59:16.325Z,49.50
2022-12-09T06:01:43.458Z,97.88
2022-12-09T06:04:11.415Z,152.63
2022-12-09T06:06:39.707Z,146.05
2022-12-09T06:09:11.570Z,120.45
2022-12-09T06:11:40.428Z,215.45
2022-12-09T06:14:08.442Z,208.50
2022-12-09T06:16:35.970Z,284.27
2022-12-09T06:19:05.978Z,186.13
2022-12-09T06:21:33.656Z,113.63
2022-12-09T06:24:00.805Z,80.93
2022-12-09T06:26:29.935Z,103.15
2022-12-09T06:28:58.468Z,139.25
2022-12-09T06:31:27.661Z,54.42
2022-12-09T06:33:57.699Z,186.60
2022-12-09T06:36:28.057Z,79.45
2022-12-09T06:38:56.680Z,135.52
2022-12-09T06:41:24.517Z,185.65
2022-12-09T06:43:52.032Z,166.90
2022-12-09T06:46:23.703Z,57.95
2022-12-09T06:48:52.907Z,220.32
2022-12-09T06:51:21.559Z,143.30
2022-12-09T06:53:48.871Z,244.93
2022-12-09T06:56:16.913Z,193.13
2022-12-09T06:58:45.965Z,200.32
2022-12-09T07:01:21.911Z,185.85
2022-12-09T07:03:51.673Z,160.80
2022-12-09T07:06:21.950Z,210.90
2022-12-09T07:08:49.316Z,210.52
2022-12-09T07:11:16.793Z,196.48
2022-12-09T07:13:44.270Z,336.90
2022-12-09T07:16:11.820Z,73.75
2022-12-09T07:18:39.157Z,123.25
2022-12-09T07:21:09.497Z,167.73
2022-12-09T07:23:37.750Z,76.72
2022-12-09T07:26:06.906Z,191.25
2022-12-09T07:28:35.909Z,170.50
2022-12-09T07:31:04.536Z,248.88
2022-12-09T07:33:32.706Z,80.80
2022-12-09T07:36:00.364Z,66.00
2022-12-09T07:38:28.486Z,139.20
2022-12-09T07:41:08.892Z,198.35
2022-12-09T07:43:36.756Z,143.27
2022-12-09T07:46:07.843Z,217.68
2022-12-09T07:48:35.472Z,97.07
2022-12-09T07:51:05.413Z,141.73
2022-12-09T07:53:38.610Z,104.50
2022-12-09T07:56:08.584Z,55.17
2022-12-09T07:58:36.319Z,87.10
2022-12-09T08:01:11.446Z,64.35
2022-12-09T08:03:42.949Z,204.75
2022-12-09T08:06:19.364Z,340.05
2022-12-09T08:08:47.383Z,167.65
2022-12-09T08:11:18.116Z,307.80
2022-12-09T08:13:45.783Z,225.35
2022-12-09T08:16:15.890Z,251.70
2022-12-09T08:18:44.282Z,168.35
2022-12-09T08:21:14.775Z,210.02
2022-12-09T08:23:42.707Z,230.90
2022-12-09T08:26:11.923Z,206.63
2022-12-09T08:28:39.458Z,148.02
2022-12-09T08:31:11.913Z,255.05
2022-12-09T08:33:40.723Z,296.75
2022-12-09T08:36:15.210Z,168.43
2022-12-09T08:38:43.362Z,195.68
2022-12-09T08:41:14.026Z,38.45
2022-12-09T08:43:43.049Z,129.35
2022-12-09T08:46:11.980Z,42.97
2022-12-09T08:48:41.674Z,41.88
2022-12-09T08:51:11.393Z,72.15
2022-12-09T08:53:39.776Z,89.75
2022-12-09T08:56:09.476Z,94.20
2022-12-09T08:58:36.795Z,86.28
2022-12-09T09:01:05.715Z,169.75
2022-12-09T09:03:34.287Z,147.82
2022-12-09T09:06:10.575Z,193.30
2022-12-09T09:08:39.234Z,173.60
2022-12-09T09:11:15.205Z,175.35
2022-12-09T09:13:44.321Z,135.05
2022-12-09T09:16:14.847Z,108.85
2022-12-09T09:18:42.893Z,117.78
2022-12-09T09:21:12.623Z,155.55
2022-12-09T09:23:41.437Z,123.13
2022-12-09T09:26:17.234Z,153.18
2022-12-09T09:28:45.224Z,223.25
2022-12-09T09:31:15.415Z,149.95
2022-12-09T09:33:44.410Z,85.68
2022-12-09T09:36:17.635Z,120.32
2022-12-09T09:38:44.786Z,175.77
2022-12-09T09:41:38.610Z,125.65
2022-12-09T09:44:35.294Z,111.40
2022-12-09T09:47:11.528Z,54.55
2022-12-09T09:49:51.910Z,68.28
2022-12-09T09:52:21.867Z,112.22
2022-12-09T09:54:49.401Z,95.03
2022-12-09T09:57:26.313Z,92.30
2022-12-09T10:00:09.731Z,80.47
2022-12-09T10:05:08.225Z,73.05
2022-12-09T10:07:42.408Z,90.53
2022-12-09T10:10:47.421Z,123.05
2022-12-09T10:13:35.431Z,105.47
2022-12-09T10:16:18.061Z,158.60
2022-12-09T10:19:23.654Z,83.55
2022-12-09T10:21:52.890Z,81.50
2022-12-09T10:24:26.089Z,94.85
2022-12-09T10:27:02.232Z,66.97
2022-12-09T10:29:44.003Z,56.47
2022-12-09T10:32:18.164Z,59.58
2022-12-09T10:34:47.746Z,51.28
2022-12-09T10:37:26.930Z,41.88
2022-12-09T10:40:08.507Z,53.45
2022-12-09T10:43:12.385Z,48.22
2022-12-09T10:48:52.995Z,44.53
2022-12-09T10:51:24.740Z,45.65
2022-12-09T10:54:05.676Z,49.22
2022-12-09T10:56:36.098Z,46.15
2022-12-09T10:59:24.033Z,44.80
2022-12-09T11:01:55.677Z,52.25
2022-12-09T11:04:30.880Z,57.28
2022-12-09T11:07:03.214Z,51.88
2022-12-09T11:09:34.650Z,55.20
2022-12-09T11:12:05.983Z,55.45
2022-12-09T11:14:36.029Z,42.13
2022-12-09T11:17:22.601Z,54.85
2022-12-09T11:19:53.320Z,45.47
2022-12-09T11:22:36.468Z,56.78
2022-12-09T11:25:13.367Z,41.90
2022-12-09T11:27:48.780Z,46.17
2022-12-09T11:30:23.660Z,53.45
2022-12-09T11:33:13.167Z,41.55
2022-12-09T11:35:43.479Z,44.13
2022-12-09T11:38:27.755Z,51.22
2022-12-09T11:43:44.536Z,39.50
2022-12-09T11:46:14.754Z,37.30
2022-12-09T11:48:53.860Z,47.03
2022-12-09T11:51:24.827Z,43.95
2022-12-09T11:54:01.788Z,46.60
2022-12-09T11:56:32.966Z,35.83
2022-12-09T11:59:22.139Z,45.17
2022-12-09T12:01:55.100Z,46.58
2022-12-09T12:05:03.167Z,43.67
2022-12-09T12:07:49.859Z,33.85
2022-12-09T12:10:25.259Z,43.47
2022-12-09T12:13:00.231Z,36.58
2022-12-09T12:16:08.994Z,37.55
2022-12-09T12:18:50.985Z,44.65
2022-12-09T12:21:55.136Z,43.33
2022-12-09T12:24:34.855Z,34.47
2022-12-09T12:27:35.154Z,34.78
2022-12-09T12:30:24.608Z,39.08
2022-12-09T12:33:53.174Z,32.35
2022-12-09T12:36:05.981Z,44.85
2022-12-09T12:39:05.584Z,41.55
2022-12-09T12:41:41.731Z,36.83
2022-12-09T12:44:46.299Z,38.28
2022-12-09T12:50:00.057Z,32.38
2022-12-09T12:53:01.061Z,31.80
2022-12-09T12:55:49.991Z,34.45
2022-12-09T12:58:41.325Z,39.33
2022-12-09T13:01:11.525Z,39.25
2022-12-09T13:04:03.205Z,36.47
2022-12-09T13:06:49.487Z,28.20
2022-12-09T13:09:31.160Z,32.60
2022-12-09T13:12:00.601Z,28.40
2022-12-09T13:14:54.272Z,31.08
2022-12-09T13:17:25.671Z,27.88
2022-12-09T13:19:59.761Z,31.77
2022-12-09T13:22:44.190Z,29.20
2022-12-09T13:25:48.145Z,41.25
2022-12-09T13:28:42.214Z,29.58
2022-12-09T13:31:11.184Z,33.72
2022-12-09T13:33:57.052Z,31.50
2022-12-09T13:36:46.611Z,31.50
2022-12-09T13:39:39.376Z,27.33
2022-12-09T13:42:56.555Z,32.90
2022-12-09T13:45:23.636Z,37.03
2022-12-09T13:47:53.341Z,31.40
2022-12-09T13:50:32.351Z,26.63
2022-12-09T13:53:23.292Z,33.08
2022-12-09T13:55:55.085Z,31.00
2022-12-09T13:58:32.798Z,42.05
2022-12-09T14:01:11.836Z,37.25
2022-12-09T14:03:58.074Z,32.88
2022-12-09T14:06:28.723Z,39.90
2022-12-09T14:09:03.084Z,52.38
2022-12-09T14:11:41.100Z,30.20
2022-12-09T14:14:23.537Z,48.10
2022-12-09T14:17:01.803Z,34.75
2022-12-09T14:19:34.018Z,44.03
2022-12-09T14:22:19.179Z,39.47
2022-12-09T14:24:53.377Z,33.80
2022-12-09T14:27:31.715Z,36.28
2022-12-09T14:30:04.457Z,40.60
2022-12-09T14:32:33.128Z,51.37
2022-12-09T14:35:12.090Z,37.55
2022-12-09T14:37:44.855Z,40.38
2022-12-09T14:40:14.549Z,39.50
2022-12-09T14:42:49.319Z,34.83
2022-12-09T14:45:21.101Z,39.05
2022-12-09T14:47:48.483Z,34.05
2022-12-09T14:50:21.507Z,34.80
2022-12-09T14:53:05.300Z,31.65
2022-12-09T14:55:38.469Z,45.85
2022-12-09T14:58:05.872Z,42.28
2022-12-09T15:00:38.949Z,38.60
2022-12-09T15:03:33.026Z,47.15
2022-12-09T15:06:12.194Z,44.40
2022-12-09T15:08:41.441Z,38.25
2022-12-09T15:11:36.558Z,74.43
2022-12-09T15:14:27.493Z,34.92
2022-12-09T15:16:56.519Z,79.65
2022-12-09T15:19:58.653Z,39.45
2022-12-09T15:22:23.217Z,42.38
2022-12-09T15:24:52.500Z,36.17
2022-12-09T15:27:22.424Z,32.83
2022-12-09T15:29:51.037Z,40.00
2022-12-09T15:32:24.064Z,36.53
2022-12-09T15:34:51.949Z,36.30
2022-12-09T15:37:23.605Z,33.13
2022-12-09T15:40:12.935Z,35.40
2022-12-09T15:42:44.237Z,37.70
2022-12-09T15:45:19.003Z,36.22
2022-12-09T15:47:58.015Z,48.38
2022-12-09T15:50:34.318Z,44.50
2022-12-09T15:53:24.503Z,51.50
2022-12-09T15:55:56.085Z,49.88
2022-12-09T15:58:27.162Z,41.88
2022-12-09T16:00:55.335Z,35.50
2022-12-09T16:03:29.066Z,31.80
2022-12-09T16:08:38.267Z,36.40
2022-12-09T16:11:06.667Z,38.78
2022-12-09T16:13:35.172Z,34.85
2022-12-09T16:16:25.617Z,33.97
2022-12-09T16:18:54.769Z,40.83
2022-12-09T16:21:27.934Z,37.75
2022-12-09T16:24:04.644Z,31.27
2022-12-09T16:26:38.298Z,36.72
2022-12-09T16:31:41.460Z,29.33
2022-12-09T16:34:22.963Z,38.33
2022-12-09T16:36:55.104Z,40.63
2022-12-09T16:39:24.902Z,42.05
2022-12-09T16:41:51.973Z,42.97
2022-12-09T16:44:27.661Z,39.75
2022-12-09T16:47:22.420Z,41.17
2022-12-09T16:49:49.702Z,42.65
2022-12-09T16:52:22.407Z,30.45
2022-12-09T16:54:50.623Z,40.10
2022-12-09T16:57:19.867Z,33.78
2022-12-09T16:59:47.297Z,41.10
2022-12-09T17:02:41.481Z,35.33
2022-12-09T17:05:09.203Z,42.42
2022-12-09T17:07:36.642Z,48.08
2022-12-09T17:10:04.360Z,40.15
2022-12-09T17:12:31.561Z,47.67
2022-12-09T17:14:58.611Z,39.72
2022-12-09T17:17:25.588Z,48.25
2022-12-09T17:19:52.679Z,44.33
2022-12-09T17:22:19.772Z,44.22
2022-12-09T17:24:46.809Z,50.95
2022-12-09T17:27:14.278Z,47.08
2022-12-09T17:29:41.455Z,47.97
2022-12-09T17:32:08.590Z,42.95
2022-12-09T17:34:36.989Z,40.28
2022-12-09T17:37:07.117Z,46.72
2022-12-09T17:39:35.633Z,91.90
2022-12-09T17:42:03.368Z,55.45
2022-12-09T17:44:30.439Z,63.67
2022-12-09T17:46:57.506Z,56.67
2022-12-09T17:49:24.541Z,99.70
2022-12-09T17:51:51.653Z,141.73
2022-12-09T17:54:18.840Z,91.63
2022-12-09T17:56:46.710Z,55.47
2022-12-09T17:59:15.791Z,37.15
2022-12-09T18:01:47.083Z,43.78
2022-12-09T18:04:15.215Z,38.80
2022-12-09T18:06:44.621Z,36.55
2022-12-09T18:09:14.874Z,43.53
2022-12-09T18:11:42.519Z,56.90
2022-12-09T18:14:10.131Z,44.72
2022-12-09T18:16:37.803Z,36.55
2022-12-09T18:19:07.541Z,52.25
2022-12-09T18:21:36.120Z,88.32
2022-12-09T18:24:04.175Z,49.22
2022-12-09T18:26:35.311Z,50.78
2022-12-09T18:29:05.613Z,46.05
2022-12-09T18:31:32.779Z,47.03
2022-12-09T18:33:59.888Z,50.70
2022-12-09T18:36:28.570Z,64.97
2022-12-09T18:38:57.915Z,52.25
2022-12-09T18:41:29.041Z,44.92
2022-12-09T18:43:58.430Z,53.40
2022-12-09T18:46:27.968Z,52.90
2022-12-09T18:48:57.551Z,51.50
2022-12-09T18:51:25.620Z,51.58
2022-12-09T18:53:53.030Z,53.40
2022-12-09T18:56:20.148Z,65.47
2022-12-09T18:59:05.921Z,47.05
2022-12-09T19:01:39.042Z,50.90
2022-12-09T19:04:17.535Z,56.30
2022-12-09T19:06:47.069Z,85.60
2022-12-09T19:09:19.403Z,70.07
2022-12-09T19:11:48.131Z,68.28
2022-12-09T19:14:16.994Z,65.05
2022-12-09T19:16:45.388Z,64.32
2022-12-09T19:19:15.698Z,63.03
2022-12-09T19:21:43.091Z,94.50
2022-12-09T19:24:23.056Z,71.78
2022-12-09T19:26:53.144Z,71.82
2022-12-09T19:29:21.836Z,85.72
2022-12-09T19:31:50.441Z,54.42
2022-12-09T19:34:22.113Z,56.80
2022-12-09T19:36:50.707Z,59.97
2022-12-09T19:39:21.014Z,49.83
2022-12-09T19:41:49.051Z,60.88
2022-12-09T19:44:37.218Z,48.00
2022-12-09T19:47:05.823Z,50.15
2022-12-09T19:49:33.073Z,60.83
2022-12-09T19:52:00.140Z,68.30
2022-12-09T19:54:29.639Z,56.38
2022-12-09T19:56:56.853Z,56.35
2022-12-09T19:59:23.958Z,51.05
2022-12-09T20:01:51.478Z,60.47
2022-12-09T20:04:47.613Z,59.40
2022-12-09T20:07:08.445Z,69.10
2022-12-09T20:09:37.096Z,76.20
2022-12-09T20:12:05.284Z,64.43
2022-12-09T20:14:34.944Z,57.85
2022-12-09T20:17:02.049Z,61.40
2022-12-09T20:19:29.205Z,53.05
2022-12-09T20:21:56.226Z,60.95
2022-12-09T20:24:23.228Z,59.50
2022-12-09T20:26:50.388Z,60.00
2022-12-09T20:29:17.415Z,62.75
2022-12-09T20:31:44.457Z,59.50
2022-12-09T20:34:14.820Z,60.63
2022-12-09T20:36:44.229Z,69.10
2022-12-09T20:39:20.237Z,69.93
2022-12-09T20:41:48.277Z,62.80
2022-12-09T20:44:16.717Z,64.07
2022-12-09T20:46:52.533Z,62.15
2022-12-09T20:49:26.126Z,64.68
2022-12-09T20:54:20.137Z,49.42
2022-12-09T20:56:47.219Z,57.63
2022-12-09T20:59:14.260Z,46.42
2022-12-09T21:01:43.408Z,47.40
2022-12-09T21:04:11.023Z,47.13
2022-12-09T21:06:40.054Z,49.75
2022-12-09T21:09:11.097Z,52.88
2022-12-09T21:11:38.503Z,50.33
2022-12-09T21:14:09.989Z,40.10
2022-12-09T21:16:40.117Z,52.28
2022-12-09T21:19:11.169Z,69.60
2022-12-09T21:21:41.046Z,69.38
2022-12-09T21:24:11.013Z,58.65
2022-12-09T21:26:38.746Z,57.30
2022-12-09T21:29:06.013Z,54.95
2022-12-09T21:31:35.956Z,65.53
2022-12-09T21:34:05.598Z,65.95
2022-12-09T21:36:38.130Z,42.83
2022-12-09T21:39:07.208Z,72.88
2022-12-09T21:41:36.492Z,64.55
2022-12-09T21:44:05.609Z,54.20
2022-12-09T21:46:35.212Z,60.58
2022-12-09T21:49:08.072Z,55.13
2022-12-09T21:51:35.393Z,52.17
2022-12-09T21:54:10.546Z,97.55
2022-12-09T21:56:37.934Z,133.07
2022-12-09T21:59:06.825Z,103.63
2022-12-09T22:01:40.046Z,122.25
2022-12-09T22:04:09.907Z,83.03
2022-12-09T22:06:38.602Z,93.22
2022-12-09T22:09:07.317Z,99.30
2022-12-09T22:11:36.651Z,139.75
2022-12-09T22:14:05.568Z,77.53
2022-12-09T22:16:36.000Z,57.80
2022-12-09T22:19:05.669Z,53.15
2022-12-09T22:21:33.877Z,41.72
2022-12-09T22:24:04.335Z,59.35
2022-12-09T22:26:32.525Z,46.75
2022-12-09T22:29:01.556Z,52.53
2022-12-09T22:31:32.453Z,44.67
2022-12-09T22:34:04.972Z,43.25
2022-12-09T22:36:33.376Z,46.35
2022-12-09T22:39:00.533Z,46.20
2022-12-09T22:41:29.688Z,77.93
2022-12-09T22:43:57.008Z,75.18
2022-12-09T22:46:30.103Z,75.60
2022-12-09T22:49:00.323Z,95.13
2022-12-09T22:51:30.139Z,98.68
2022-12-09T22:53:58.642Z,65.28
2022-12-09T22:56:26.092Z,61.65
2022-12-09T22:58:53.645Z,79.18
2022-12-09T23:01:29.524Z,86.88
2022-12-09T23:03:57.937Z,67.88
2022-12-09T23:06:26.870Z,59.50
2022-12-09T23:08:54.381Z,73.70
2022-12-09T23:11:26.428Z,85.65
2022-12-09T23:13:54.517Z,74.43
2022-12-09T23:16:23.920Z,59.00
2022-12-09T23:18:52.059Z,61.72
2022-12-09T23:21:21.863Z,71.10
2022-12-09T23:23:52.231Z,64.47
2022-12-09T23:26:20.814Z,81.78
2022-12-09T23:28:51.126Z,69.13
2022-12-09T23:31:20.351Z,69.32
2022-12-09T23:33:48.569Z,61.08
2022-12-09T23:36:21.919Z,55.83
2022-12-09T23:38:49.957Z,72.13
2022-12-09T23:41:19.398Z,63.83
2022-12-09T23:43:48.270Z,59.83
2022-12-09T23:46:19.110Z,58.15
2022-12-09T23:48:48.242Z,55.40
2022-12-09T23:51:21.941Z,50.83
2022-12-09T23:53:51.689Z,56.28
2022-12-09T23:56:20.815Z,50.38
2022-12-09T23:58:52.465Z,57.45
